createdAt,value
2018-02-08T00:02:07.473Z,99719.34
2018-02-08T00:04:35.619Z,99722.95
2018-02-08T00:07:04.574Z,99724.06
2018-02-08T00:09:32.497Z,99720.45
2018-02-08T00:12:00.711Z,99724.56
2018-02-08T00:14:28.505Z,99727.59
2018-02-08T00:16:56.284Z,99728.94
2018-02-08T00:19:23.957Z,99725.67
2018-02-08T00:21:51.845Z,99727.09
2018-02-08T00:24:19.566Z,99725.91
2018-02-08T00:26:47.650Z,99722.10
2018-02-08T00:29:15.670Z,99718.58
2018-02-08T00:31:44.072Z,99717.59
2018-02-08T01:48:58.734Z,99720.75
2018-02-08T01:51:26.673Z,99713.34
2018-02-08T01:53:54.545Z,99711.52
2018-02-08T01:56:22.053Z,99719.94
2018-02-08T01:58:50.182Z,99716.22
2018-02-08T02:01:17.733Z,99717.52
2018-02-08T02:03:45.240Z,99711.43
2018-02-08T02:06:12.803Z,99715.31
2018-02-08T02:40:00.222Z,99719.80
2018-02-08T02:42:27.736Z,99713.09
2018-02-08T02:44:55.284Z,99719.49
2018-02-08T02:47:22.836Z,99713.94
2018-02-08T02:49:50.505Z,99717.64
2018-02-08T02:52:18.031Z,99711.52
2018-02-08T02:54:45.551Z,99717.93
2018-02-08T02:57:13.088Z,99713.53
2018-02-08T02:59:40.606Z,99709.50
2018-02-08T03:02:08.286Z,99715.16
2018-02-08T03:04:35.886Z,99712.52
2018-02-08T03:07:03.441Z,99720.45
2018-02-08T03:09:30.979Z,99716.09
2018-02-08T03:11:58.550Z,99717.77
2018-02-08T03:14:26.072Z,99718.91
2018-02-08T03:16:53.584Z,99721.88
2018-02-08T03:19:21.145Z,99725.73
2018-02-08T03:21:48.706Z,99726.33
2018-02-08T03:24:16.869Z,99730.34
2018-02-08T03:26:44.430Z,99724.14
2018-02-08T03:29:11.972Z,99734.48
2018-02-08T03:31:39.495Z,99729.35
2018-02-08T03:34:07.061Z,99739.02
2018-02-08T03:36:34.568Z,99732.55
2018-02-08T03:39:02.142Z,99741.97
2018-02-08T03:41:29.639Z,99741.73
2018-02-08T03:43:57.167Z,99737.62
2018-02-08T03:46:24.729Z,99741.81
2018-02-08T03:48:52.227Z,99739.48
2018-02-08T03:51:19.759Z,99742.18
2018-02-08T03:53:47.316Z,99740.08
2018-02-08T03:56:14.854Z,99744.20
2018-02-08T03:58:42.397Z,99744.17
2018-02-08T04:01:09.927Z,99743.77
2018-02-08T04:03:37.471Z,99738.95
2018-02-08T04:06:05.001Z,99744.46
2018-02-08T04:08:32.568Z,99747.96
2018-02-08T04:11:00.091Z,99741.67
2018-02-08T04:13:27.653Z,99752.11
2018-02-08T04:15:55.166Z,99749.23
2018-02-08T04:18:22.729Z,99753.04
2018-02-08T04:20:50.242Z,99755.20
2018-02-08T04:23:17.740Z,99759.94
2018-02-08T04:25:45.284Z,99758.67
2018-02-08T04:28:12.796Z,99758.08
2018-02-08T04:30:40.409Z,99762.22
2018-02-08T04:33:07.907Z,99758.40
2018-02-08T04:35:35.443Z,99763.45
2018-02-08T04:38:02.993Z,99762.44
2018-02-08T04:40:42.339Z,99761.62
2018-02-08T04:43:21.612Z,99753.62
2018-02-08T04:46:00.769Z,99749.98
2018-02-08T04:48:28.316Z,99753.20
2018-02-08T04:50:55.837Z,99756.55
2018-02-08T04:53:23.389Z,99752.80
2018-02-08T04:55:50.947Z,99751.83
2018-02-08T04:58:18.502Z,99757.92
2018-02-08T05:00:46.984Z,99759.59
2018-02-08T05:03:14.510Z,99754.97
2018-02-08T05:05:42.048Z,99751.61
2018-02-08T05:08:09.589Z,99748.56
2018-02-08T05:10:37.093Z,99748.98
2018-02-08T05:13:04.645Z,99754.91
2018-02-08T05:15:32.165Z,99756.41
2018-02-08T05:17:59.679Z,99756.73
2018-02-08T05:20:27.254Z,99752.20
2018-02-08T05:22:54.781Z,99750.01
2018-02-08T05:25:22.283Z,99750.52
2018-02-08T05:27:49.843Z,99750.93
2018-02-08T05:30:17.352Z,99749.16
2018-02-08T05:32:44.912Z,99751.17
2018-02-08T05:35:12.420Z,99753.28
2018-02-08T05:37:39.981Z,99760.25
2018-02-08T05:40:07.538Z,99748.22
2018-02-08T05:42:35.088Z,99752.52
2018-02-08T05:45:02.613Z,99748.06
2018-02-08T05:47:30.166Z,99754.44
2018-02-08T05:49:57.680Z,99755.83
2018-02-08T05:52:25.220Z,99761.28
2018-02-08T05:54:52.773Z,99765.07
2018-02-08T05:57:20.301Z,99765.33
2018-02-08T05:59:47.874Z,99775.66
2018-02-08T06:02:15.442Z,99773.58
2018-02-08T06:04:42.944Z,99773.89
2018-02-08T06:07:10.483Z,99772.21
2018-02-08T06:09:38.031Z,99773.66
2018-02-08T06:12:05.550Z,99773.67
2018-02-08T06:14:33.158Z,99779.56
2018-02-08T06:17:00.722Z,99787.05
2018-02-08T06:19:28.231Z,99788.22
2018-02-08T06:21:55.806Z,99792.52
2018-02-08T06:24:23.325Z,99791.61
2018-02-08T06:26:50.886Z,99789.48
2018-02-08T06:29:18.450Z,99801.95
2018-02-08T06:31:46.006Z,99795.55
2018-02-08T06:34:13.552Z,99796.80
2018-02-08T06:36:41.112Z,99806.56
2018-02-08T06:39:08.643Z,99802.53
2018-02-08T06:41:36.182Z,99793.44
2018-02-08T06:44:03.707Z,99802.53
2018-02-08T06:46:31.247Z,99801.61
2018-02-08T06:48:58.810Z,99803.53
2018-02-08T06:51:26.315Z,99807.08
2018-02-08T06:53:53.839Z,99808.92
2018-02-08T06:56:21.385Z,99810.70
2018-02-08T06:58:48.911Z,99817.19
2018-02-08T07:01:17.112Z,99822.15
2018-02-08T07:03:44.716Z,99823.41
2018-02-08T07:06:12.320Z,99822.40
2018-02-08T07:08:39.846Z,99824.42
2018-02-08T07:11:07.376Z,99828.28
2018-02-08T07:13:34.935Z,99837.15
2018-02-08T07:16:02.480Z,99833.44
2018-02-08T07:18:30.028Z,99834.45
2018-02-08T07:20:57.575Z,99839.66
2018-02-08T07:23:25.312Z,99842.27
2018-02-08T07:25:52.878Z,99849.16
2018-02-08T07:28:20.387Z,99844.47
2018-02-08T07:30:47.949Z,99847.14
2018-02-08T07:33:15.798Z,99851.03
2018-02-08T07:35:43.367Z,99855.89
2018-02-08T07:38:10.881Z,99845.36
2018-02-08T07:40:38.405Z,99841.27
2018-02-08T07:43:05.953Z,99845.39
2018-02-08T07:45:33.460Z,99851.11
2018-02-08T07:48:01.017Z,99857.92
2018-02-08T07:50:28.566Z,99855.59
2018-02-08T07:52:56.104Z,99862.91
2018-02-08T07:55:23.652Z,99860.88
2018-02-08T07:57:51.226Z,99859.70
2018-02-08T08:00:18.744Z,99860.05
2018-02-08T08:02:47.123Z,99858.17
2018-02-08T08:05:14.678Z,99865.00
2018-02-08T08:07:42.188Z,99865.34
2018-02-08T08:10:09.732Z,99863.41
2018-02-08T08:12:37.280Z,99869.56
2018-02-08T08:17:57.523Z,99868.13
2018-02-08T08:20:25.049Z,99872.09
2018-02-08T08:22:52.597Z,99875.38
2018-02-08T08:25:20.140Z,99877.57
2018-02-08T08:27:47.692Z,99874.69
2018-02-08T08:30:15.200Z,99873.11
2018-02-08T08:32:42.773Z,99875.78
2018-02-08T08:35:10.405Z,99877.00
2018-02-08T08:37:37.980Z,99882.60
2018-02-08T08:40:05.510Z,99879.23
2018-02-08T08:42:33.126Z,99880.38
2018-02-08T08:45:00.676Z,99889.31
2018-02-08T08:47:28.261Z,99888.70
2018-02-08T08:49:55.822Z,99893.53
2018-02-08T08:52:23.367Z,99890.75
2018-02-08T08:54:51.005Z,99896.25
2018-02-08T08:57:18.642Z,99891.98
2018-02-08T08:59:47.160Z,99902.00
2018-02-08T09:02:14.723Z,99896.45
2018-02-08T09:04:42.231Z,99892.98
2018-02-08T09:07:09.804Z,99897.29
2018-02-08T09:09:37.376Z,99893.00
2018-02-08T09:12:06.764Z,99897.28
2018-02-08T09:14:34.630Z,99905.02
2018-02-08T09:17:02.437Z,99904.11
2018-02-08T09:19:30.278Z,99898.79
2018-02-08T09:21:57.980Z,99899.30
2018-02-08T09:24:25.535Z,99899.47
2018-02-08T09:26:53.283Z,99902.23
2018-02-08T09:29:20.992Z,99903.59
2018-02-08T09:31:48.797Z,99906.37
2018-02-08T09:34:17.617Z,99903.99
2018-02-08T09:36:45.296Z,99903.59
2018-02-08T09:39:12.948Z,99896.09
2018-02-08T09:41:40.690Z,99900.23
2018-02-08T09:44:08.394Z,99895.09
2018-02-08T09:46:36.333Z,99899.88
2018-02-08T09:49:04.115Z,99904.36
2018-02-08T09:51:31.787Z,99902.64
2018-02-08T09:53:59.961Z,99903.92
2018-02-08T09:56:28.083Z,99908.32
2018-02-08T09:58:55.708Z,99906.20
2018-02-08T10:01:23.465Z,99909.31
2018-02-08T10:03:52.121Z,99912.83
2018-02-08T10:06:19.832Z,99903.82
2018-02-08T10:08:47.458Z,99911.05
2018-02-08T10:11:15.327Z,99912.74
2018-02-08T10:13:43.136Z,99913.56
2018-02-08T10:16:11.179Z,99907.22
2018-02-08T10:18:39.137Z,99909.21
2018-02-08T10:21:06.978Z,99902.74
2018-02-08T10:23:35.378Z,99904.34
2018-02-08T10:26:04.197Z,99899.97
2018-02-08T10:28:32.223Z,99899.21
2018-02-08T10:30:59.846Z,99896.08
2018-02-08T10:33:27.826Z,99892.91
2018-02-08T10:35:55.738Z,99893.79
2018-02-08T10:38:23.853Z,99890.36
2018-02-08T10:40:51.652Z,99893.30
2018-02-08T10:43:19.908Z,99889.83
2018-02-08T10:45:47.721Z,99888.23
2018-02-08T10:48:16.718Z,99890.09
2018-02-08T10:50:44.486Z,99892.27
2018-02-08T10:53:12.375Z,99887.63
2018-02-08T10:55:40.225Z,99886.12
2018-02-08T10:58:07.857Z,99885.00
2018-02-08T11:00:35.404Z,99892.67
2018-02-08T11:03:03.997Z,99884.58
2018-02-08T11:05:31.681Z,99884.29
2018-02-08T11:07:59.797Z,99882.77
2018-02-08T11:10:27.571Z,99880.76
2018-02-08T11:12:55.289Z,99883.64
2018-02-08T11:15:22.833Z,99883.79
2018-02-08T11:17:50.366Z,99889.19
2018-02-08T11:20:17.933Z,99892.63
2018-02-08T11:22:45.479Z,99881.95
2018-02-08T11:25:12.997Z,99875.12
2018-02-08T11:27:40.552Z,99879.32
2018-02-08T11:30:08.075Z,99878.20
2018-02-08T11:32:35.601Z,99880.24
2018-02-08T11:35:03.500Z,99873.52
2018-02-08T11:37:31.235Z,99872.19
2018-02-08T11:39:59.142Z,99868.77
2018-02-08T11:42:26.917Z,99879.08
2018-02-08T11:44:54.796Z,99870.03
2018-02-08T11:47:22.545Z,99870.42
2018-02-08T11:49:50.411Z,99873.30
2018-02-08T11:52:18.290Z,99867.53
2018-02-08T11:54:46.172Z,99863.22
2018-02-08T11:57:14.069Z,99867.93
2018-02-08T11:59:41.942Z,99871.65
2018-02-08T12:02:09.890Z,99881.31
2018-02-08T12:04:37.686Z,99874.09
2018-02-08T12:07:05.502Z,99879.33
2018-02-08T12:09:33.425Z,99877.62
2018-02-08T12:12:01.321Z,99875.80
2018-02-08T12:14:29.246Z,99873.17
2018-02-08T12:16:57.065Z,99873.20
2018-02-08T12:19:24.929Z,99872.64
2018-02-08T12:21:52.824Z,99873.30
2018-02-08T12:24:20.628Z,99867.80
2018-02-08T12:26:48.544Z,99866.38
2018-02-08T12:29:16.387Z,99871.23
2018-02-08T12:31:44.333Z,99862.16
2018-02-08T12:34:12.121Z,99860.66
2018-02-08T12:36:40.093Z,99854.32
2018-02-08T12:39:07.634Z,99847.82
2018-02-08T12:41:35.209Z,99847.70
2018-02-08T12:44:02.755Z,99846.17
2018-02-08T12:46:30.320Z,99843.66
2018-02-08T12:48:57.887Z,99847.21
2018-02-08T12:51:25.722Z,99837.08
2018-02-08T12:53:53.236Z,99846.86
2018-02-08T12:56:20.780Z,99840.13
2018-02-08T12:58:48.348Z,99837.47
2018-02-08T13:01:16.042Z,99833.72
2018-02-08T13:03:43.900Z,99830.79
2018-02-08T13:06:11.474Z,99832.96
2018-02-08T13:08:39.016Z,99829.23
2018-02-08T13:11:06.803Z,99821.73
2018-02-08T13:13:34.371Z,99823.08
2018-02-08T13:16:01.912Z,99822.31
2018-02-08T13:18:29.505Z,99810.94
2018-02-08T13:20:57.314Z,99808.64
2018-02-08T13:23:25.175Z,99809.10
2018-02-08T13:25:52.732Z,99805.81
2018-02-08T13:28:20.285Z,99799.37
2018-02-08T13:30:47.800Z,99796.91
2018-02-08T13:33:15.371Z,99800.30
2018-02-08T13:35:43.232Z,99809.13
2018-02-08T13:38:11.205Z,99809.64
2018-02-08T13:40:51.972Z,99813.05
2018-02-08T13:43:19.913Z,99812.13
2018-02-08T13:45:47.947Z,99815.70
2018-02-08T13:51:14.305Z,99816.16
2018-02-08T13:56:52.888Z,99812.53
2018-02-08T14:02:19.514Z,99812.84
2018-02-08T14:04:51.227Z,99808.03
2018-02-08T14:07:19.138Z,99804.51
2018-02-08T14:09:46.660Z,99808.53
2018-02-08T14:12:14.181Z,99808.55
2018-02-08T14:14:41.895Z,99802.09
2018-02-08T14:17:09.427Z,99801.34
2018-02-08T14:19:37.002Z,99803.08
2018-02-08T14:22:04.567Z,99799.22
2018-02-08T14:24:32.057Z,99795.44
2018-02-08T14:26:59.662Z,99796.71
2018-02-08T14:29:27.453Z,99794.44
2018-02-08T14:31:56.867Z,99782.84
2018-02-08T14:34:25.893Z,99777.81
2018-02-08T14:36:54.048Z,99773.54
2018-02-08T14:39:21.881Z,99768.97
2018-02-08T14:41:50.026Z,99765.54
2018-02-08T14:44:17.574Z,99762.94
2018-02-08T14:46:45.406Z,99763.17
2018-02-08T14:49:13.368Z,99764.95
2018-02-08T14:51:41.129Z,99765.05
2018-02-08T14:54:09.145Z,99769.52
2018-02-08T14:56:36.989Z,99768.44
2018-02-08T14:59:04.657Z,99769.34
2018-02-08T15:01:32.575Z,99772.14
2018-02-08T15:04:00.894Z,99768.92
2018-02-08T15:06:28.977Z,99768.69
2018-02-08T15:08:57.404Z,99757.87
2018-02-08T15:11:25.847Z,99748.17
2018-02-08T15:13:53.802Z,99755.05
2018-02-08T15:16:21.593Z,99750.91
2018-02-08T15:18:49.581Z,99745.77
2018-02-08T15:21:17.326Z,99747.11
2018-02-08T15:23:45.105Z,99746.50
2018-02-08T15:26:13.055Z,99748.48
2018-02-08T15:28:41.105Z,99748.92
2018-02-08T15:31:09.020Z,99746.83
2018-02-08T15:33:37.097Z,99749.66
2018-02-08T15:36:04.736Z,99742.50
2018-02-08T15:38:32.247Z,99745.36
2018-02-08T15:40:59.818Z,99742.64
2018-02-08T15:43:27.328Z,99746.56
2018-02-08T15:45:55.689Z,99745.69
2018-02-08T15:48:23.295Z,99738.69
2018-02-08T15:50:50.860Z,99738.00
2018-02-08T15:53:18.400Z,99738.73
2018-02-08T15:55:45.923Z,99738.00
2018-02-08T15:58:13.482Z,99732.14
2018-02-08T16:00:40.990Z,99731.20
2018-02-08T16:03:08.569Z,99739.09
2018-02-08T16:05:36.090Z,99742.87
2018-02-08T16:08:03.641Z,99733.71
2018-02-08T16:10:31.170Z,99736.00
2018-02-08T16:12:58.695Z,99734.25
2018-02-08T16:15:26.249Z,99733.69
2018-02-08T16:17:53.814Z,99740.77
2018-02-08T16:20:21.336Z,99733.01
2018-02-08T16:22:49.235Z,99741.37
2018-02-08T16:25:17.089Z,99745.91
2018-02-08T16:27:44.934Z,99741.91
2018-02-08T16:30:12.957Z,99740.73
2018-02-08T16:32:40.500Z,99742.58
2018-02-08T16:35:08.305Z,99750.82
2018-02-08T16:37:35.868Z,99743.73
2018-02-08T16:40:04.160Z,99746.32
2018-02-08T16:42:32.202Z,99746.51
2018-02-08T16:45:00.063Z,99744.77
2018-02-08T16:47:28.085Z,99740.39
2018-02-08T16:49:55.610Z,99741.37
2018-02-08T16:52:23.184Z,99744.02
2018-02-08T16:54:50.694Z,99740.50
2018-02-08T16:57:18.249Z,99747.31
2018-02-08T16:59:45.817Z,99744.34
2018-02-08T17:02:13.382Z,99747.34
2018-02-08T17:04:40.968Z,99749.26
2018-02-08T17:07:08.493Z,99758.28
2018-02-08T17:09:36.027Z,99756.93
2018-02-08T17:12:03.583Z,99752.71
2018-02-08T17:14:31.097Z,99754.55
2018-02-08T17:16:58.602Z,99753.57
2018-02-08T17:19:26.239Z,99762.34
2018-02-08T17:21:53.759Z,99764.45
2018-02-08T17:24:21.263Z,99765.81
2018-02-08T17:26:48.955Z,99761.27
2018-02-08T17:29:16.465Z,99760.41
2018-02-08T17:31:44.023Z,99765.55
2018-02-08T17:34:12.494Z,99765.02
2018-02-08T17:36:40.036Z,99763.75
2018-02-08T17:39:07.590Z,99753.91
2018-02-08T17:41:35.554Z,99756.21
2018-02-08T17:44:03.189Z,99754.00
2018-02-08T17:46:30.753Z,99749.26
2018-02-08T17:48:58.315Z,99755.66
2018-02-08T17:51:25.917Z,99747.67
2018-02-08T17:53:53.520Z,99746.80
2018-02-08T17:56:21.046Z,99746.97
2018-02-08T17:58:48.593Z,99739.95
2018-02-08T18:01:16.138Z,99742.83
2018-02-08T18:03:43.689Z,99742.52
2018-02-08T18:06:11.222Z,99741.91
2018-02-08T18:08:38.791Z,99744.38
2018-02-08T18:11:06.319Z,99746.47
2018-02-08T18:13:33.864Z,99748.80
2018-02-08T18:16:01.390Z,99742.81
2018-02-08T18:18:29.109Z,99742.75
2018-02-08T18:20:56.630Z,99744.37
2018-02-08T18:23:24.203Z,99743.34
2018-02-08T18:25:51.762Z,99751.42
2018-02-08T18:28:19.280Z,99749.98
2018-02-08T18:30:46.827Z,99752.59
2018-02-08T18:33:14.331Z,99752.36
2018-02-08T18:35:41.917Z,99754.78
2018-02-08T18:38:09.524Z,99753.78
2018-02-08T18:40:37.308Z,99753.77
2018-02-08T18:43:04.956Z,99750.33
2018-02-08T18:45:32.462Z,99754.43
2018-02-08T18:47:59.981Z,99751.59
2018-02-08T18:50:27.531Z,99757.18
2018-02-08T18:52:55.744Z,99743.86
2018-02-08T18:55:23.314Z,99744.39
2018-02-08T18:57:50.829Z,99745.86
2018-02-08T19:00:18.387Z,99745.46
2018-02-08T19:02:45.918Z,99743.33
2018-02-08T19:05:13.504Z,99745.05
2018-02-08T19:07:41.043Z,99748.91
2018-02-08T19:10:08.602Z,99748.00
2018-02-08T19:12:36.129Z,99748.13
2018-02-08T19:15:03.693Z,99745.88
2018-02-08T19:17:31.263Z,99755.80
2018-02-08T19:19:58.786Z,99759.34
2018-02-08T19:22:26.337Z,99748.79
2018-02-08T19:24:53.914Z,99751.81
2018-02-08T19:27:21.457Z,99742.78
2018-02-08T19:29:48.980Z,99746.89
2018-02-08T19:32:16.544Z,99752.55
2018-02-08T19:34:44.070Z,99749.59
2018-02-08T19:37:11.626Z,99749.95
2018-02-08T19:39:39.169Z,99746.31
2018-02-08T19:42:06.738Z,99755.27
2018-02-08T19:44:34.279Z,99751.03
2018-02-08T19:47:01.829Z,99754.34
2018-02-08T19:49:29.386Z,99747.90
2018-02-08T19:51:56.943Z,99750.30
2018-02-08T19:54:24.532Z,99742.91
2018-02-08T19:56:52.076Z,99743.09
2018-02-08T19:59:19.643Z,99741.58
2018-02-08T20:01:47.201Z,99741.75
2018-02-08T20:04:14.879Z,99734.39
2018-02-08T20:06:42.389Z,99731.42
2018-02-08T20:09:09.927Z,99730.67
2018-02-08T20:11:37.431Z,99728.55
2018-02-08T20:17:01.155Z,99730.93
2018-02-08T20:19:28.695Z,99727.81
2018-02-08T20:21:56.241Z,99731.27
2018-02-08T20:24:23.769Z,99732.96
2018-02-08T20:26:51.322Z,99726.38
2018-02-08T20:29:18.878Z,99727.10
2018-02-08T20:31:46.403Z,99722.58
2018-02-08T20:34:13.954Z,99723.61
2018-02-08T20:36:41.525Z,99723.98
2018-02-08T20:39:09.051Z,99716.81
2018-02-08T20:41:36.610Z,99714.80
2018-02-08T20:44:04.130Z,99718.66
2018-02-08T20:46:31.684Z,99718.09
2018-02-08T20:48:59.224Z,99719.27
2018-02-08T20:51:26.810Z,99718.42
2018-02-08T20:59:40.061Z,99713.87
2018-02-08T21:02:07.610Z,99714.61
2018-02-08T21:04:35.273Z,99712.11
2018-02-08T21:07:02.859Z,99714.45
2018-02-08T21:09:30.432Z,99708.32
2018-02-08T21:11:58.144Z,99707.66
2018-02-08T21:14:26.023Z,99708.04
2018-02-08T21:16:53.867Z,99701.55
2018-02-08T21:19:21.526Z,99697.30
2018-02-08T21:21:49.151Z,99697.55
2018-02-08T21:24:16.778Z,99694.27
2018-02-08T21:26:44.332Z,99695.89
2018-02-08T21:29:11.898Z,99694.62
2018-02-08T21:31:39.521Z,99689.81
2018-02-08T21:34:07.097Z,99687.77
2018-02-08T21:36:34.634Z,99688.77
2018-02-08T21:39:02.199Z,99692.05
2018-02-08T21:41:29.813Z,99688.18
2018-02-08T21:43:57.390Z,99693.77
2018-02-08T21:46:24.955Z,99690.21
2018-02-08T21:48:52.527Z,99685.74
2018-02-08T21:51:20.073Z,99682.55
2018-02-08T21:53:47.717Z,99680.52
2018-02-08T21:56:15.299Z,99685.58
2018-02-08T21:58:42.898Z,99683.05
2018-02-08T22:01:10.490Z,99681.11
2018-02-08T22:03:38.086Z,99681.27
2018-02-08T22:06:05.697Z,99674.20
2018-02-08T22:08:33.272Z,99670.63
2018-02-08T22:11:00.869Z,99664.72
2018-02-08T22:13:28.479Z,99669.08
2018-02-08T22:15:56.547Z,99662.59
2018-02-08T22:18:24.151Z,99663.19
2018-02-08T22:20:51.744Z,99660.07
2018-02-08T22:23:19.330Z,99656.58
2018-02-08T22:25:46.936Z,99657.23
2018-02-08T22:28:14.527Z,99656.30
2018-02-08T22:30:42.069Z,99654.89
2018-02-08T23:04:48.072Z,99649.00
2018-02-08T23:07:15.582Z,99649.59
2018-02-08T23:09:43.155Z,99642.36
2018-02-08T23:12:10.686Z,99644.65
2018-02-08T23:14:38.200Z,99640.43
2018-02-08T23:17:05.767Z,99636.90
2018-02-08T23:19:33.293Z,99638.99
2018-02-08T23:22:00.860Z,99630.17
2018-02-08T23:24:28.440Z,99629.33
2018-02-08T23:26:56.293Z,99626.55
2018-02-08T23:29:23.856Z,99623.44
2018-02-08T23:31:51.400Z,99616.61
2018-02-08T23:34:18.970Z,99615.20
2018-02-08T23:36:46.489Z,99618.46
2018-02-08T23:39:13.995Z,99622.02
2018-02-08T23:41:41.566Z,99623.01
2018-02-08T23:44:09.083Z,99622.53
2018-02-08T23:46:36.609Z,99620.84
2018-02-08T23:49:04.177Z,99623.86
2018-02-08T23:51:31.702Z,99617.21
2018-02-08T23:53:59.265Z,99612.69
2018-02-08T23:56:26.799Z,99621.25
2018-02-08T23:58:54.315Z,99613.50
